sensor_id;sensor_type;location;lat;lon;timestamp;P1;durP1;ratioP1;P2;durP2;ratioP2
13660;SDS011;6903;49.480;11.102;2023-01-24T00:00:33;12.23;;;8.70;;
13660;SDS011;6903;49.480;11.102;2023-01-24T00:02:58;12.30;;;8.87;;
13660;SDS011;6903;49.480;11.102;2023-01-24T00:05:23;13.23;;;9.00;;
13660;SDS011;6903;49.480;11.102;2023-01-24T00:07:49;11.60;;;7.13;;
13660;SDS011;6903;49.480;11.102;2023-01-24T00:10:14;9.70;;;6.03;;
13660;SDS011;6903;49.480;11.102;2023-01-24T00:12:39;10.93;;;8.20;;
13660;SDS011;6903;49.480;11.102;2023-01-24T00:15:05;12.43;;;7.00;;
13660;SDS011;6903;49.480;11.102;2023-01-24T00:17:31;12.17;;;8.13;;
13660;SDS011;6903;49.480;11.102;2023-01-24T00:19:56;10.40;;;7.67;;
13660;SDS011;6903;49.480;11.102;2023-01-24T00:22:21;12.73;;;8.20;;
13660;SDS011;6903;49.480;11.102;2023-01-24T00:24:47;12.90;;;7.80;;
13660;SDS011;6903;49.480;11.102;2023-01-24T00:27:13;12.13;;;7.73;;
13660;SDS011;6903;49.480;11.102;2023-01-24T00:29:39;14.20;;;8.70;;
13660;SDS011;6903;49.480;11.102;2023-01-24T00:32:05;11.93;;;8.50;;
13660;SDS011;6903;49.480;11.102;2023-01-24T00:34:30;11.83;;;7.97;;
13660;SDS011;6903;49.480;11.102;2023-01-24T00:36:55;13.90;;;8.50;;
13660;SDS011;6903;49.480;11.102;2023-01-24T00:39:20;11.27;;;7.83;;
13660;SDS011;6903;49.480;11.102;2023-01-24T00:41:46;11.97;;;6.93;;
13660;SDS011;6903;49.480;11.102;2023-01-24T00:44:11;11.73;;;6.57;;
13660;SDS011;6903;49.480;11.102;2023-01-24T00:46:37;11.47;;;7.90;;
13660;SDS011;6903;49.480;11.102;2023-01-24T00:49:02;12.93;;;9.20;;
13660;SDS011;6903;49.480;11.102;2023-01-24T00:51:27;11.80;;;8.57;;
13660;SDS011;6903;49.480;11.102;2023-01-24T00:53:53;12.20;;;7.07;;
13660;SDS011;6903;49.480;11.102;2023-01-24T00:56:18;13.27;;;8.23;;
13660;SDS011;6903;49.480;11.102;2023-01-24T00:58:43;12.80;;;8.87;;
13660;SDS011;6903;49.480;11.102;2023-01-24T01:01:09;12.53;;;9.07;;
13660;SDS011;6903;49.480;11.102;2023-01-24T01:03:34;12.27;;;8.90;;
13660;SDS011;6903;49.480;11.102;2023-01-24T01:06:01;14.20;;;9.30;;
13660;SDS011;6903;49.480;11.102;2023-01-24T01:08:31;13.63;;;8.60;;
13660;SDS011;6903;49.480;11.102;2023-01-24T01:10:57;14.17;;;9.27;;
13660;SDS011;6903;49.480;11.102;2023-01-24T01:13:23;11.27;;;7.77;;
13660;SDS011;6903;49.480;11.102;2023-01-24T01:15:49;13.07;;;8.47;;
13660;SDS011;6903;49.480;11.102;2023-01-24T01:18:14;12.87;;;8.40;;
13660;SDS011;6903;49.480;11.102;2023-01-24T01:20:40;10.90;;;7.07;;
13660;SDS011;6903;49.480;11.102;2023-01-24T01:23:05;12.03;;;7.70;;
13660;SDS011;6903;49.480;11.102;2023-01-24T01:25:30;11.87;;;7.97;;
13660;SDS011;6903;49.480;11.102;2023-01-24T01:27:56;11.70;;;7.47;;
13660;SDS011;6903;49.480;11.102;2023-01-24T01:30:21;12.90;;;8.13;;
13660;SDS011;6903;49.480;11.102;2023-01-24T01:32:47;12.03;;;7.93;;
13660;SDS011;6903;49.480;11.102;2023-01-24T01:35:12;11.53;;;7.70;;
13660;SDS011;6903;49.480;11.102;2023-01-24T01:37:38;13.17;;;8.50;;
13660;SDS011;6903;49.480;11.102;2023-01-24T01:40:03;14.13;;;9.03;;
13660;SDS011;6903;49.480;11.102;2023-01-24T01:42:37;10.33;;;6.97;;
13660;SDS011;6903;49.480;11.102;2023-01-24T01:47:58;11.67;;;7.77;;
13660;SDS011;6903;49.480;11.102;2023-01-24T01:50:29;11.57;;;7.90;;
13660;SDS011;6903;49.480;11.102;2023-01-24T01:52:58;12.73;;;8.27;;
13660;SDS011;6903;49.480;11.102;2023-01-24T01:55:24;14.20;;;8.90;;
13660;SDS011;6903;49.480;11.102;2023-01-24T01:57:56;13.03;;;8.20;;
13660;SDS011;6903;49.480;11.102;2023-01-24T02:00:23;11.97;;;7.23;;
13660;SDS011;6903;49.480;11.102;2023-01-24T02:02:59;13.77;;;9.30;;
13660;SDS011;6903;49.480;11.102;2023-01-24T02:05:47;11.10;;;7.67;;
13660;SDS011;6903;49.480;11.102;2023-01-24T02:08:16;11.73;;;7.47;;
13660;SDS011;6903;49.480;11.102;2023-01-24T02:10:45;12.57;;;7.83;;
13660;SDS011;6903;49.480;11.102;2023-01-24T02:13:29;11.30;;;8.13;;
13660;SDS011;6903;49.480;11.102;2023-01-24T02:15:56;12.90;;;8.93;;
13660;SDS011;6903;49.480;11.102;2023-01-24T02:18:29;10.23;;;6.47;;
13660;SDS011;6903;49.480;11.102;2023-01-24T02:20:55;11.23;;;7.23;;
13660;SDS011;6903;49.480;11.102;2023-01-24T02:23:38;11.43;;;7.87;;
13660;SDS011;6903;49.480;11.102;2023-01-24T02:26:21;10.70;;;7.03;;
13660;SDS011;6903;49.480;11.102;2023-01-24T02:29:05;10.33;;;6.30;;
13660;SDS011;6903;49.480;11.102;2023-01-24T02:34:27;9.83;;;5.60;;
13660;SDS011;6903;49.480;11.102;2023-01-24T02:36:54;10.10;;;6.57;;
13660;SDS011;6903;49.480;11.102;2023-01-24T02:39:26;9.47;;;6.33;;
13660;SDS011;6903;49.480;11.102;2023-01-24T02:44:55;10.77;;;7.33;;
13660;SDS011;6903;49.480;11.102;2023-01-24T02:47:26;10.53;;;6.93;;
13660;SDS011;6903;49.480;11.102;2023-01-24T02:49:57;11.13;;;7.27;;
13660;SDS011;6903;49.480;11.102;2023-01-24T02:52:25;9.50;;;7.17;;
13660;SDS011;6903;49.480;11.102;2023-01-24T02:55:09;10.77;;;7.23;;
13660;SDS011;6903;49.480;11.102;2023-01-24T02:57:35;8.87;;;6.33;;
13660;SDS011;6903;49.480;11.102;2023-01-24T03:03:41;9.53;;;6.60;;
13660;SDS011;6903;49.480;11.102;2023-01-24T03:06:10;10.53;;;7.10;;
13660;SDS011;6903;49.480;11.102;2023-01-24T03:08:36;6.20;;;4.20;;
13660;SDS011;6903;49.480;11.102;2023-01-24T03:11:02;6.57;;;4.70;;
13660;SDS011;6903;49.480;11.102;2023-01-24T03:13:28;8.80;;;6.50;;
13660;SDS011;6903;49.480;11.102;2023-01-24T03:16:12;10.10;;;6.00;;
13660;SDS011;6903;49.480;11.102;2023-01-24T03:18:56;8.83;;;5.40;;
13660;SDS011;6903;49.480;11.102;2023-01-24T03:21:40;8.13;;;6.00;;
13660;SDS011;6903;49.480;11.102;2023-01-24T03:24:23;7.80;;;5.50;;
13660;SDS011;6903;49.480;11.102;2023-01-24T03:27:08;8.57;;;5.90;;
13660;SDS011;6903;49.480;11.102;2023-01-24T03:29:52;8.30;;;6.13;;
13660;SDS011;6903;49.480;11.102;2023-01-24T03:32:36;9.33;;;6.27;;
13660;SDS011;6903;49.480;11.102;2023-01-24T03:35:20;9.93;;;6.83;;
13660;SDS011;6903;49.480;11.102;2023-01-24T03:37:45;9.57;;;5.90;;
13660;SDS011;6903;49.480;11.102;2023-01-24T03:40:29;9.60;;;6.50;;
13660;SDS011;6903;49.480;11.102;2023-01-24T03:42:55;8.73;;;6.33;;
13660;SDS011;6903;49.480;11.102;2023-01-24T03:45:22;10.60;;;6.70;;
13660;SDS011;6903;49.480;11.102;2023-01-24T03:47:49;9.93;;;6.43;;
13660;SDS011;6903;49.480;11.102;2023-01-24T03:50:26;9.33;;;5.73;;
13660;SDS011;6903;49.480;11.102;2023-01-24T03:53:18;9.13;;;6.10;;
13660;SDS011;6903;49.480;11.102;2023-01-24T03:55:45;8.80;;;6.13;;
13660;SDS011;6903;49.480;11.102;2023-01-24T03:58:11;8.37;;;5.63;;
13660;SDS011;6903;49.480;11.102;2023-01-24T04:00:37;8.27;;;5.67;;
13660;SDS011;6903;49.480;11.102;2023-01-24T04:03:04;9.07;;;6.60;;
13660;SDS011;6903;49.480;11.102;2023-01-24T04:05:29;8.57;;;5.80;;
13660;SDS011;6903;49.480;11.102;2023-01-24T04:07:56;7.57;;;5.77;;
13660;SDS011;6903;49.480;11.102;2023-01-24T04:10:22;8.20;;;5.20;;
13660;SDS011;6903;49.480;11.102;2023-01-24T04:12:48;7.93;;;5.87;;
13660;SDS011;6903;49.480;11.102;2023-01-24T04:15:14;8.17;;;5.73;;
13660;SDS011;6903;49.480;11.102;2023-01-24T04:17:43;7.10;;;4.60;;
13660;SDS011;6903;49.480;11.102;2023-01-24T04:20:08;7.60;;;5.23;;
13660;SDS011;6903;49.480;11.102;2023-01-24T04:22:34;7.67;;;4.47;;
13660;SDS011;6903;49.480;11.102;2023-01-24T04:24:59;7.47;;;5.17;;
13660;SDS011;6903;49.480;11.102;2023-01-24T04:27:25;7.27;;;5.00;;
13660;SDS011;6903;49.480;11.102;2023-01-24T04:29:50;6.27;;;4.30;;
13660;SDS011;6903;49.480;11.102;2023-01-24T04:32:15;6.53;;;4.10;;
13660;SDS011;6903;49.480;11.102;2023-01-24T04:34:41;7.43;;;4.83;;
13660;SDS011;6903;49.480;11.102;2023-01-24T04:37:06;6.90;;;4.67;;
13660;SDS011;6903;49.480;11.102;2023-01-24T04:39:31;8.43;;;5.77;;
13660;SDS011;6903;49.480;11.102;2023-01-24T04:41:57;7.20;;;5.10;;
13660;SDS011;6903;49.480;11.102;2023-01-24T04:44:22;7.13;;;4.67;;
13660;SDS011;6903;49.480;11.102;2023-01-24T04:46:47;6.50;;;4.43;;
13660;SDS011;6903;49.480;11.102;2023-01-24T04:49:13;7.03;;;4.57;;
13660;SDS011;6903;49.480;11.102;2023-01-24T04:51:38;4.90;;;3.80;;
13660;SDS011;6903;49.480;11.102;2023-01-24T04:54:07;6.83;;;4.47;;
13660;SDS011;6903;49.480;11.102;2023-01-24T04:56:32;6.73;;;4.77;;
13660;SDS011;6903;49.480;11.102;2023-01-24T04:58:58;7.23;;;4.57;;
13660;SDS011;6903;49.480;11.102;2023-01-24T05:01:23;6.13;;;4.10;;
13660;SDS011;6903;49.480;11.102;2023-01-24T05:03:48;6.70;;;4.50;;
13660;SDS011;6903;49.480;11.102;2023-01-24T05:06:14;5.27;;;3.87;;
13660;SDS011;6903;49.480;11.102;2023-01-24T05:08:39;5.20;;;4.23;;
13660;SDS011;6903;49.480;11.102;2023-01-24T05:11:04;6.53;;;3.70;;
13660;SDS011;6903;49.480;11.102;2023-01-24T05:13:30;5.53;;;3.53;;
13660;SDS011;6903;49.480;11.102;2023-01-24T05:15:55;6.00;;;4.07;;
13660;SDS011;6903;49.480;11.102;2023-01-24T05:18:20;5.23;;;3.77;;
13660;SDS011;6903;49.480;11.102;2023-01-24T05:20:46;6.40;;;4.27;;
13660;SDS011;6903;49.480;11.102;2023-01-24T05:23:11;5.17;;;3.83;;
13660;SDS011;6903;49.480;11.102;2023-01-24T05:25:36;6.53;;;4.23;;
13660;SDS011;6903;49.480;11.102;2023-01-24T05:28:02;5.67;;;4.10;;
13660;SDS011;6903;49.480;11.102;2023-01-24T05:30:27;4.53;;;3.40;;
13660;SDS011;6903;49.480;11.102;2023-01-24T05:32:56;4.90;;;3.70;;
13660;SDS011;6903;49.480;11.102;2023-01-24T05:35:22;5.33;;;4.30;;
13660;SDS011;6903;49.480;11.102;2023-01-24T05:37:47;5.47;;;3.77;;
13660;SDS011;6903;49.480;11.102;2023-01-24T05:40:12;3.87;;;3.03;;
13660;SDS011;6903;49.480;11.102;2023-01-24T05:42:39;6.67;;;3.73;;
13660;SDS011;6903;49.480;11.102;2023-01-24T05:45:07;4.10;;;3.40;;
13660;SDS011;6903;49.480;11.102;2023-01-24T05:47:33;6.10;;;4.40;;
13660;SDS011;6903;49.480;11.102;2023-01-24T05:49:58;5.67;;;4.20;;
13660;SDS011;6903;49.480;11.102;2023-01-24T05:52:24;5.70;;;4.30;;
13660;SDS011;6903;49.480;11.102;2023-01-24T05:54:49;5.77;;;4.27;;
13660;SDS011;6903;49.480;11.102;2023-01-24T05:57:16;4.53;;;3.37;;
13660;SDS011;6903;49.480;11.102;2023-01-24T05:59:41;5.97;;;4.10;;
13660;SDS011;6903;49.480;11.102;2023-01-24T06:02:07;5.50;;;3.77;;
13660;SDS011;6903;49.480;11.102;2023-01-24T06:04:32;6.47;;;4.57;;
13660;SDS011;6903;49.480;11.102;2023-01-24T06:06:57;4.60;;;3.37;;
13660;SDS011;6903;49.480;11.102;2023-01-24T06:09:23;5.53;;;3.47;;
13660;SDS011;6903;49.480;11.102;2023-01-24T06:11:48;5.00;;;3.60;;
13660;SDS011;6903;49.480;11.102;2023-01-24T06:14:14;4.90;;;3.27;;
13660;SDS011;6903;49.480;11.102;2023-01-24T06:16:39;2.70;;;2.30;;
13660;SDS011;6903;49.480;11.102;2023-01-24T06:19:04;4.27;;;3.17;;
13660;SDS011;6903;49.480;11.102;2023-01-24T06:21:43;4.93;;;3.63;;
13660;SDS011;6903;49.480;11.102;2023-01-24T06:26:42;4.67;;;3.80;;
13660;SDS011;6903;49.480;11.102;2023-01-24T06:29:09;6.90;;;4.30;;
13660;SDS011;6903;49.480;11.102;2023-01-24T06:31:40;6.47;;;4.03;;
13660;SDS011;6903;49.480;11.102;2023-01-24T06:40:09;4.40;;;3.50;;
13660;SDS011;6903;49.480;11.102;2023-01-24T06:42:36;6.13;;;3.80;;
13660;SDS011;6903;49.480;11.102;2023-01-24T06:45:02;6.93;;;4.20;;
13660;SDS011;6903;49.480;11.102;2023-01-24T06:47:27;5.77;;;3.93;;
13660;SDS011;6903;49.480;11.102;2023-01-24T06:49:53;5.37;;;4.00;;
13660;SDS011;6903;49.480;11.102;2023-01-24T06:52:18;5.83;;;3.50;;
13660;SDS011;6903;49.480;11.102;2023-01-24T06:54:44;5.23;;;3.83;;
13660;SDS011;6903;49.480;11.102;2023-01-24T06:57:09;5.43;;;3.90;;
13660;SDS011;6903;49.480;11.102;2023-01-24T06:59:34;4.13;;;2.93;;
13660;SDS011;6903;49.480;11.102;2023-01-24T07:02:00;4.47;;;3.20;;
13660;SDS011;6903;49.480;11.102;2023-01-24T07:04:25;6.33;;;3.90;;
13660;SDS011;6903;49.480;11.102;2023-01-24T07:06:51;4.30;;;3.00;;
13660;SDS011;6903;49.480;11.102;2023-01-24T07:09:19;5.83;;;3.90;;
13660;SDS011;6903;49.480;11.102;2023-01-24T07:11:48;5.53;;;3.70;;
13660;SDS011;6903;49.480;11.102;2023-01-24T07:14:17;5.40;;;3.73;;
13660;SDS011;6903;49.480;11.102;2023-01-24T07:16:43;6.70;;;4.60;;
13660;SDS011;6903;49.480;11.102;2023-01-24T07:19:15;6.30;;;4.67;;
13660;SDS011;6903;49.480;11.102;2023-01-24T07:21:42;6.07;;;4.37;;
13660;SDS011;6903;49.480;11.102;2023-01-24T07:24:09;6.80;;;4.33;;
13660;SDS011;6903;49.480;11.102;2023-01-24T07:26:38;6.47;;;4.17;;
13660;SDS011;6903;49.480;11.102;2023-01-24T07:29:04;7.53;;;4.70;;
13660;SDS011;6903;49.480;11.102;2023-01-24T07:31:29;5.63;;;3.33;;
13660;SDS011;6903;49.480;11.102;2023-01-24T07:33:54;6.10;;;3.90;;
13660;SDS011;6903;49.480;11.102;2023-01-24T07:36:20;6.03;;;4.27;;
13660;SDS011;6903;49.480;11.102;2023-01-24T07:38:45;4.73;;;3.90;;
13660;SDS011;6903;49.480;11.102;2023-01-24T07:41:10;4.50;;;3.13;;
13660;SDS011;6903;49.480;11.102;2023-01-24T07:43:36;6.20;;;3.97;;
13660;SDS011;6903;49.480;11.102;2023-01-24T07:46:01;4.77;;;3.67;;
13660;SDS011;6903;49.480;11.102;2023-01-24T07:48:28;5.10;;;3.70;;
13660;SDS011;6903;49.480;11.102;2023-01-24T07:50:53;3.97;;;3.13;;
13660;SDS011;6903;49.480;11.102;2023-01-24T07:53:22;4.67;;;3.77;;
13660;SDS011;6903;49.480;11.102;2023-01-24T07:55:47;5.33;;;4.07;;
13660;SDS011;6903;49.480;11.102;2023-01-24T07:58:12;5.80;;;4.13;;
13660;SDS011;6903;49.480;11.102;2023-01-24T08:00:38;6.00;;;4.67;;
13660;SDS011;6903;49.480;11.102;2023-01-24T08:03:03;5.87;;;4.07;;
13660;SDS011;6903;49.480;11.102;2023-01-24T08:05:28;5.37;;;4.17;;
13660;SDS011;6903;49.480;11.102;2023-01-24T08:07:54;6.67;;;4.33;;
13660;SDS011;6903;49.480;11.102;2023-01-24T08:10:19;6.23;;;4.50;;
13660;SDS011;6903;49.480;11.102;2023-01-24T08:12:46;6.10;;;4.67;;
13660;SDS011;6903;49.480;11.102;2023-01-24T08:15:12;4.80;;;3.87;;
13660;SDS011;6903;49.480;11.102;2023-01-24T08:17:37;4.53;;;3.60;;
13660;SDS011;6903;49.480;11.102;2023-01-24T08:20:04;5.17;;;4.20;;
13660;SDS011;6903;49.480;11.102;2023-01-24T08:22:30;4.60;;;3.70;;
13660;SDS011;6903;49.480;11.102;2023-01-24T08:24:55;4.77;;;3.67;;
13660;SDS011;6903;49.480;11.102;2023-01-24T08:27:20;4.43;;;3.30;;
13660;SDS011;6903;49.480;11.102;2023-01-24T08:29:46;4.30;;;3.67;;
13660;SDS011;6903;49.480;11.102;2023-01-24T08:32:11;5.83;;;3.80;;
13660;SDS011;6903;49.480;11.102;2023-01-24T08:34:36;4.97;;;3.73;;
13660;SDS011;6903;49.480;11.102;2023-01-24T08:37:02;6.60;;;3.87;;
13660;SDS011;6903;49.480;11.102;2023-01-24T08:39:27;5.50;;;4.03;;
13660;SDS011;6903;49.480;11.102;2023-01-24T08:41:52;6.07;;;4.20;;
13660;SDS011;6903;49.480;11.102;2023-01-24T08:44:17;5.30;;;4.27;;
13660;SDS011;6903;49.480;11.102;2023-01-24T08:46:43;6.60;;;4.33;;
13660;SDS011;6903;49.480;11.102;2023-01-24T08:49:11;3.87;;;3.17;;
13660;SDS011;6903;49.480;11.102;2023-01-24T08:51:36;5.73;;;3.73;;
13660;SDS011;6903;49.480;11.102;2023-01-24T08:54:03;5.40;;;4.03;;
13660;SDS011;6903;49.480;11.102;2023-01-24T08:56:29;7.37;;;4.37;;
13660;SDS011;6903;49.480;11.102;2023-01-24T08:58:55;5.53;;;3.20;;
13660;SDS011;6903;49.480;11.102;2023-01-24T09:01:20;3.97;;;3.20;;
13660;SDS011;6903;49.480;11.102;2023-01-24T09:03:45;4.93;;;4.03;;
13660;SDS011;6903;49.480;11.102;2023-01-24T09:06:11;5.23;;;3.93;;
13660;SDS011;6903;49.480;11.102;2023-01-24T09:08:36;4.97;;;3.93;;
13660;SDS011;6903;49.480;11.102;2023-01-24T09:11:01;5.83;;;4.20;;
13660;SDS011;6903;49.480;11.102;2023-01-24T09:13:27;5.13;;;3.90;;
13660;SDS011;6903;49.480;11.102;2023-01-24T09:15:52;4.70;;;3.83;;
13660;SDS011;6903;49.480;11.102;2023-01-24T09:18:18;5.30;;;4.23;;
13660;SDS011;6903;49.480;11.102;2023-01-24T09:20:43;4.67;;;3.33;;
13660;SDS011;6903;49.480;11.102;2023-01-24T09:23:09;5.07;;;3.73;;
13660;SDS011;6903;49.480;11.102;2023-01-24T09:25:37;5.63;;;3.93;;
13660;SDS011;6903;49.480;11.102;2023-01-24T09:28:03;6.37;;;4.10;;
13660;SDS011;6903;49.480;11.102;2023-01-24T09:30:28;6.33;;;4.90;;
13660;SDS011;6903;49.480;11.102;2023-01-24T09:32:54;7.07;;;4.60;;
13660;SDS011;6903;49.480;11.102;2023-01-24T09:35:19;5.90;;;4.60;;
13660;SDS011;6903;49.480;11.102;2023-01-24T09:37:44;5.87;;;4.67;;
13660;SDS011;6903;49.480;11.102;2023-01-24T09:40:18;5.73;;;4.77;;
13660;SDS011;6903;49.480;11.102;2023-01-24T09:42:52;5.03;;;4.00;;
13660;SDS011;6903;49.480;11.102;2023-01-24T09:45:36;5.13;;;4.20;;
13660;SDS011;6903;49.480;11.102;2023-01-24T09:48:13;6.60;;;4.10;;
13660;SDS011;6903;49.480;11.102;2023-01-24T09:50:43;6.10;;;4.40;;
13660;SDS011;6903;49.480;11.102;2023-01-24T09:53:14;5.87;;;3.97;;
13660;SDS011;6903;49.480;11.102;2023-01-24T09:55:44;6.63;;;4.97;;
13660;SDS011;6903;49.480;11.102;2023-01-24T09:58:16;7.70;;;4.93;;
13660;SDS011;6903;49.480;11.102;2023-01-24T10:00:44;5.63;;;4.03;;
13660;SDS011;6903;49.480;11.102;2023-01-24T10:03:20;5.00;;;4.23;;
13660;SDS011;6903;49.480;11.102;2023-01-24T10:05:50;6.77;;;3.73;;
13660;SDS011;6903;49.480;11.102;2023-01-24T10:08:30;5.07;;;3.87;;
13660;SDS011;6903;49.480;11.102;2023-01-24T10:19:17;6.93;;;5.10;;
13660;SDS011;6903;49.480;11.102;2023-01-24T10:21:49;5.37;;;4.47;;
13660;SDS011;6903;49.480;11.102;2023-01-24T10:24:39;5.07;;;3.80;;
13660;SDS011;6903;49.480;11.102;2023-01-24T10:27:13;6.27;;;5.10;;
13660;SDS011;6903;49.480;11.102;2023-01-24T10:29:44;6.73;;;4.77;;
13660;SDS011;6903;49.480;11.102;2023-01-24T10:32:20;6.23;;;4.70;;
13660;SDS011;6903;49.480;11.102;2023-01-24T10:34:59;6.13;;;5.10;;
13660;SDS011;6903;49.480;11.102;2023-01-24T10:37:38;7.33;;;4.33;;
13660;SDS011;6903;49.480;11.102;2023-01-24T10:40:12;6.63;;;5.13;;
13660;SDS011;6903;49.480;11.102;2023-01-24T10:42:40;7.63;;;5.60;;
13660;SDS011;6903;49.480;11.102;2023-01-24T10:47:58;6.20;;;4.93;;
13660;SDS011;6903;49.480;11.102;2023-01-24T10:50:40;7.33;;;5.67;;
13660;SDS011;6903;49.480;11.102;2023-01-24T10:55:44;6.20;;;4.60;;
13660;SDS011;6903;49.480;11.102;2023-01-24T10:58:19;6.93;;;4.47;;
13660;SDS011;6903;49.480;11.102;2023-01-24T11:00:54;5.43;;;4.20;;
13660;SDS011;6903;49.480;11.102;2023-01-24T11:03:22;5.57;;;4.90;;
13660;SDS011;6903;49.480;11.102;2023-01-24T11:05:52;6.60;;;5.60;;
13660;SDS011;6903;49.480;11.102;2023-01-24T11:08:20;6.93;;;5.10;;
13660;SDS011;6903;49.480;11.102;2023-01-24T11:10:50;7.37;;;5.53;;
13660;SDS011;6903;49.480;11.102;2023-01-24T11:15:48;5.63;;;4.23;;
13660;SDS011;6903;49.480;11.102;2023-01-24T11:18:24;6.43;;;5.23;;
13660;SDS011;6903;49.480;11.102;2023-01-24T11:23:38;5.97;;;4.80;;
13660;SDS011;6903;49.480;11.102;2023-01-24T11:26:05;6.63;;;4.50;;
13660;SDS011;6903;49.480;11.102;2023-01-24T11:28:35;5.13;;;4.20;;
13660;SDS011;6903;49.480;11.102;2023-01-24T11:31:05;7.20;;;4.83;;
13660;SDS011;6903;49.480;11.102;2023-01-24T11:38:50;5.90;;;4.90;;
13660;SDS011;6903;49.480;11.102;2023-01-24T11:44:32;6.77;;;4.97;;
13660;SDS011;6903;49.480;11.102;2023-01-24T11:47:18;5.30;;;4.60;;
13660;SDS011;6903;49.480;11.102;2023-01-24T11:52:27;5.63;;;4.43;;
13660;SDS011;6903;49.480;11.102;2023-01-24T12:00:47;7.33;;;5.43;;
13660;SDS011;6903;49.480;11.102;2023-01-24T12:11:27;7.57;;;5.27;;
13660;SDS011;6903;49.480;11.102;2023-01-24T12:22:16;6.20;;;5.23;;
13660;SDS011;6903;49.480;11.102;2023-01-24T12:24:54;6.03;;;5.40;;
13660;SDS011;6903;49.480;11.102;2023-01-24T12:27:26;8.13;;;5.70;;
13660;SDS011;6903;49.480;11.102;2023-01-24T12:29:58;6.63;;;5.73;;
13660;SDS011;6903;49.480;11.102;2023-01-24T12:32:28;6.57;;;4.83;;
13660;SDS011;6903;49.480;11.102;2023-01-24T12:35:22;7.70;;;4.73;;
13660;SDS011;6903;49.480;11.102;2023-01-24T12:41:02;7.20;;;5.10;;
13660;SDS011;6903;49.480;11.102;2023-01-24T12:43:46;6.77;;;5.37;;
13660;SDS011;6903;49.480;11.102;2023-01-24T12:49:10;7.33;;;5.50;;
13660;SDS011;6903;49.480;11.102;2023-01-24T12:51:53;6.20;;;5.47;;
13660;SDS011;6903;49.480;11.102;2023-01-24T12:54:30;7.97;;;5.80;;
13660;SDS011;6903;49.480;11.102;2023-01-24T12:57:13;8.73;;;6.47;;
13660;SDS011;6903;49.480;11.102;2023-01-24T12:59:48;9.03;;;6.40;;
13660;SDS011;6903;49.480;11.102;2023-01-24T13:13:04;7.57;;;6.17;;
13660;SDS011;6903;49.480;11.102;2023-01-24T13:15:43;9.47;;;7.50;;
13660;SDS011;6903;49.480;11.102;2023-01-24T13:21:01;7.70;;;5.80;;
13660;SDS011;6903;49.480;11.102;2023-01-24T13:23:41;5.77;;;4.63;;
13660;SDS011;6903;49.480;11.102;2023-01-24T13:26:17;7.97;;;6.23;;
13660;SDS011;6903;49.480;11.102;2023-01-24T13:29:21;7.83;;;5.67;;
13660;SDS011;6903;49.480;11.102;2023-01-24T13:32:04;7.00;;;5.37;;
13660;SDS011;6903;49.480;11.102;2023-01-24T13:34:53;8.03;;;5.57;;
13660;SDS011;6903;49.480;11.102;2023-01-24T13:37:22;8.73;;;6.53;;
13660;SDS011;6903;49.480;11.102;2023-01-24T13:39:58;7.47;;;5.80;;
13660;SDS011;6903;49.480;11.102;2023-01-24T13:42:37;9.47;;;7.00;;
13660;SDS011;6903;49.480;11.102;2023-01-24T13:47:47;9.10;;;7.30;;
13660;SDS011;6903;49.480;11.102;2023-01-24T13:50:14;10.43;;;7.77;;
13660;SDS011;6903;49.480;11.102;2023-01-24T13:52:45;12.47;;;8.87;;
13660;SDS011;6903;49.480;11.102;2023-01-24T13:57:44;8.70;;;6.87;;
13660;SDS011;6903;49.480;11.102;2023-01-24T14:02:40;8.00;;;5.67;;
13660;SDS011;6903;49.480;11.102;2023-01-24T14:08:16;8.50;;;6.20;;
13660;SDS011;6903;49.480;11.102;2023-01-24T14:10:46;7.63;;;5.87;;
13660;SDS011;6903;49.480;11.102;2023-01-24T14:16:54;9.27;;;6.77;;
13660;SDS011;6903;49.480;11.102;2023-01-24T14:22:19;7.63;;;6.13;;
13660;SDS011;6903;49.480;11.102;2023-01-24T14:24:37;9.13;;;7.57;;
13660;SDS011;6903;49.480;11.102;2023-01-24T14:30:17;9.33;;;6.57;;
13660;SDS011;6903;49.480;11.102;2023-01-24T14:32:52;8.27;;;6.30;;
13660;SDS011;6903;49.480;11.102;2023-01-24T14:37:54;10.60;;;8.17;;
13660;SDS011;6903;49.480;11.102;2023-01-24T14:40:42;10.23;;;7.37;;
13660;SDS011;6903;49.480;11.102;2023-01-24T14:43:12;8.03;;;5.90;;
13660;SDS011;6903;49.480;11.102;2023-01-24T14:45:38;10.93;;;6.93;;
13660;SDS011;6903;49.480;11.102;2023-01-24T14:48:08;9.30;;;6.60;;
13660;SDS011;6903;49.480;11.102;2023-01-24T14:50:38;9.67;;;6.97;;
13660;SDS011;6903;49.480;11.102;2023-01-24T14:53:21;9.67;;;7.50;;
13660;SDS011;6903;49.480;11.102;2023-01-24T14:55:49;6.60;;;5.13;;
13660;SDS011;6903;49.480;11.102;2023-01-24T14:58:23;9.17;;;6.80;;
13660;SDS011;6903;49.480;11.102;2023-01-24T15:00:52;9.97;;;7.17;;
13660;SDS011;6903;49.480;11.102;2023-01-24T15:03:24;11.67;;;8.23;;
13660;SDS011;6903;49.480;11.102;2023-01-24T15:05:52;9.27;;;7.20;;
13660;SDS011;6903;49.480;11.102;2023-01-24T15:08:21;9.07;;;6.63;;
13660;SDS011;6903;49.480;11.102;2023-01-24T15:10:54;9.73;;;7.60;;
13660;SDS011;6903;49.480;11.102;2023-01-24T15:13:33;8.77;;;6.67;;
13660;SDS011;6903;49.480;11.102;2023-01-24T15:16:00;9.53;;;7.30;;
13660;SDS011;6903;49.480;11.102;2023-01-24T15:21:17;9.77;;;7.30;;
13660;SDS011;6903;49.480;11.102;2023-01-24T15:23:51;10.37;;;7.47;;
13660;SDS011;6903;49.480;11.102;2023-01-24T15:26:22;9.80;;;6.90;;
13660;SDS011;6903;49.480;11.102;2023-01-24T15:28:49;8.87;;;5.70;;
13660;SDS011;6903;49.480;11.102;2023-01-24T15:31:18;7.70;;;5.50;;
13660;SDS011;6903;49.480;11.102;2023-01-24T15:33:45;9.67;;;6.63;;
13660;SDS011;6903;49.480;11.102;2023-01-24T15:38:56;11.33;;;7.80;;
13660;SDS011;6903;49.480;11.102;2023-01-24T15:44:11;11.73;;;7.87;;
13660;SDS011;6903;49.480;11.102;2023-01-24T15:46:42;9.70;;;6.90;;
13660;SDS011;6903;49.480;11.102;2023-01-24T15:49:30;9.43;;;6.40;;
13660;SDS011;6903;49.480;11.102;2023-01-24T15:54:26;10.43;;;8.00;;
13660;SDS011;6903;49.480;11.102;2023-01-24T15:56:53;9.33;;;7.30;;
13660;SDS011;6903;49.480;11.102;2023-01-24T15:59:20;14.27;;;9.90;;
13660;SDS011;6903;49.480;11.102;2023-01-24T16:01:47;11.10;;;7.37;;
13660;SDS011;6903;49.480;11.102;2023-01-24T16:04:14;11.03;;;7.17;;
13660;SDS011;6903;49.480;11.102;2023-01-24T16:06:41;10.80;;;8.50;;
13660;SDS011;6903;49.480;11.102;2023-01-24T16:09:07;11.53;;;8.17;;
13660;SDS011;6903;49.480;11.102;2023-01-24T16:11:34;13.60;;;9.60;;
13660;SDS011;6903;49.480;11.102;2023-01-24T16:14:00;11.33;;;7.83;;
13660;SDS011;6903;49.480;11.102;2023-01-24T16:16:26;12.03;;;8.50;;
13660;SDS011;6903;49.480;11.102;2023-01-24T16:18:51;12.20;;;8.90;;
13660;SDS011;6903;49.480;11.102;2023-01-24T16:21:16;11.57;;;8.17;;
13660;SDS011;6903;49.480;11.102;2023-01-24T16:23:41;10.33;;;8.23;;
13660;SDS011;6903;49.480;11.102;2023-01-24T16:26:12;10.80;;;8.07;;
13660;SDS011;6903;49.480;11.102;2023-01-24T16:28:47;10.23;;;7.27;;
13660;SDS011;6903;49.480;11.102;2023-01-24T16:31:13;11.13;;;8.40;;
13660;SDS011;6903;49.480;11.102;2023-01-24T16:33:38;11.33;;;8.03;;
13660;SDS011;6903;49.480;11.102;2023-01-24T16:36:04;12.00;;;8.60;;
13660;SDS011;6903;49.480;11.102;2023-01-24T16:38:29;12.17;;;8.60;;
13660;SDS011;6903;49.480;11.102;2023-01-24T16:40:55;12.17;;;8.80;;
13660;SDS011;6903;49.480;11.102;2023-01-24T16:43:20;12.70;;;9.00;;
13660;SDS011;6903;49.480;11.102;2023-01-24T16:45:47;12.37;;;9.20;;
13660;SDS011;6903;49.480;11.102;2023-01-24T16:48:14;14.13;;;9.30;;
13660;SDS011;6903;49.480;11.102;2023-01-24T16:50:41;11.10;;;8.70;;
13660;SDS011;6903;49.480;11.102;2023-01-24T16:53:07;12.27;;;8.70;;
13660;SDS011;6903;49.480;11.102;2023-01-24T16:55:33;13.20;;;9.90;;
13660;SDS011;6903;49.480;11.102;2023-01-24T16:57:59;12.60;;;9.63;;
13660;SDS011;6903;49.480;11.102;2023-01-24T17:00:25;12.53;;;9.07;;